Weather observations for the past three days for
Ray S Miller Army Airfield
Metric (Imperial)
Date Time (cdt) Wind (kph) Vis. (km) Weather Sky Cond. Temperature (ºC) Relative Humidity Wind Chill (°C) Heat Index (°C) Pressure Precipitation (cm)
Air Dwpt 6 hour altimeter (cm) sea level (mb) 1 hr 3 hr 6 hr
Max. Min.
06 07:55 Calm 16.09 Fair CLR 19.1 18.1 94% 76.33 1017.6
06 06:55 SE 6 16.09 Partly Cloudy FEW004 SCT160 18 17.3 19.9 17.3 96% 76.28 1016.8
06 05:55 E 7 16.09 Partly Cloudy SCT150 17.5 16.8 96% 76.28 1016.8
06 04:55 Calm 16.09 A Few Clouds FEW150 17.6 16.9 96% 76.28 1016.7
06 03:55 Calm 14.48 Fair CLR 18.4 17.4 94% 76.23 1016.0
06 02:55 E 6 16.09 Fair CLR 18.9 17.7 93% 76.23 1016.0
06 00:55 E 6 16.09 Fair CLR 20 18.1 26.2 20 89% 76.28 1016.8
05 23:55 SE 9 16.09 Fair CLR 20.9 18.5 86% 76.25 1016.5
05 22:55 E 9 16.09 Fair CLR 21 18.4 85% 76.25 1016.6
05 21:55 SE 6 16.09 Fair CLR 21.2 18.2 83% 76.28 1017.0
05 20:55 E 9 16.09 Fair CLR 21.9 18.1 79% 76.28 1017.0
05 19:55 SE 9 16.09 Fair CLR 23.9 18.5 72% 25 76.17 1015.5
05 18:55 E 13 16.09 Fair CLR 25.9 18 30.3 25 62% 27 76.1 1014.4
05 17:55 E 22 16.09 Fair CLR 27.2 19.5 63% 29 76.05 1013.8
05 16:55 E 19 16.09 Fair CLR 29.1 20 58% 31 76.12 1014.7
05 15:55 E 17 16.09 Fair CLR 30 19 52% 31 76.15 1015.0
05 14:55 SE 11 16.09 Fair CLR 28.2 19.1 58% 29 76.2 1015.7
05 11:55 E 11 16.09 Partly Cloudy SCT013 22.8 17.9 74% 76.28 1016.9
05 10:55 E 11 16.09 Overcast OVC008 20.2 17.2 83% 76.33 1017.6
05 09:55 SE 7 16.09 Overcast OVC005 18.6 16.7 89% 76.33 1017.7
05 08:55 E 11 16.09 Overcast OVC004 17.4 16.2 93% 76.3 1017.4
05 07:55 E 11 16.09 Overcast OVC004 17.1 16.3 95% 76.28 1017.0
05 06:55 SE 9 12.87 Overcast OVC003 17.1 16.4 19.3 17.1 96% 76.23 1016.2
05 05:55 E 13 16.09 Overcast OVC003 17.6 16.8 95% 76.2 1015.7
05 04:55 E 13 9.66 Fog/Mist OVC003 17.5 16.8 96% 76.12 1014.7
05 03:55 E 13 16.09 Overcast OVC005 18.1 16.9 93% 76.15 1015.1
05 02:55 E 11 16.09 Overcast OVC006 18.6 17.3 92% 76.17 1015.4
05 01:55 Calm 16.09 Overcast OVC008 18.6 16.9 90% 76.17 1015.4
05 00:55 NE 7 16.09 Fair CLR 17.7 16.2 25.9 17.7 91% 76.17 1015.5
04 23:55 E 13 16.09 Partly Cloudy SCT012 18.9 16.7 87% 76.17 1015.5
04 22:55 E 7 16.09 Partly Cloudy SCT013 19.2 17.5 90% 76.17 1015.6
04 21:55 E 13 16.09 Fair CLR 19.7 17.6 88% 76.15 1015.2
04 20:55 E 9 16.09 Fair CLR 21.3 18.3 83% 76.1 1014.5
04 19:55 E 9 16.09 Fair CLR 23 18.9 78% 76.05 1013.8
04 18:55 NE 17 16.09 Fair CLR 26 19.4 29.2 25.4 67% 27 76.02 1013.4
04 17:55 NE 13 16.09 Fair CLR 28 19.5 60% 29 76 1012.9
04 16:55 N 13 16.09 Fair CLR 28.5 19.9 60% 30 76 1012.9
04 15:55 NE 11 16.09 Fair CLR 28.2 20.2 62% 30 75.97 1012.6
04 14:55 NE 13 16.09 A Few Clouds FEW026 27.7 19.7 62% 29 75.97 1012.7
04 13:55 NE 13 16.09 Fair CLR 27.4 19.7 63% 29 75.97 1012.7
04 12:55 N 15 16.09 Overcast BKN017 OVC028 25.4 19.3 25.6 19.5 69% 26 76 1013.1
04 11:55 NE 11 16.09 Overcast OVC025 24.3 18.7 71% 25 76 1013.1
04 10:55 NE 15 16.09 Overcast OVC013 21.8 18.2 80% 75.97 1012.7
04 09:55 N 11 16.09 Overcast OVC010 21.8 18.8 83% 75.92 1011.9
04 08:55 Calm 16.09 Overcast SCT004 OVC017 20.6 19.1 91% 75.87 1011.3
04 07:55 N 6 16.09 Overcast OVC006 20 18.6 92% 75.87 1011.2
04 06:55 E 6 16.09 Overcast OVC007 19.7 18 20 18.6 90% 75.77 1009.8
04 05:55 SE 6 16.09 Overcast OVC008 19.9 17.7 87% 75.74 1009.5
04 04:55 E 6 16.09 Overcast OVC009 19.7 17.5 87% 75.77 1009.8
04 03:55 E 11 16.09 Overcast OVC008 19 17 88% 75.72 1009.1
04 01:55 NE 22 16.09 Overcast OVC013 19.3 16.9 86% 75.74 1009.5
04 00:55 E 7 16.09 Fair CLR 19.8 17.6 29.1 19.8 87% 75.64 1008.1
03 23:55 E 11 16.09 Fair CLR 20.6 17.6 83% 75.64 1008.1
03 22:55 E 19 16.09 Partly Cloudy SCT047 22.2 17.7 76% 75.64 1008.2
03 21:55 E 15 16.09 Overcast OVC038 25.6 20.4 73% 27 75.62 1007.8
03 20:55 E 9 16.09 Fair CLR 25.9 20.9 74% 27 75.59 1007.5
03 19:55 SE 13 16.09 Mostly Cloudy FEW039 BKN055 27.4 20.7 67% 29 75.57 1007.1
03 17:55 S 19 16.09 Thunderstorm in Vicinity BKN060 30.5 20.7 56% 33 75.49 1006.1
03 16:55 SE 22 16.09 Partly Cloudy FEW042 SCT050 30.4 20 54% 32 75.49 1006.1
03 15:55 S 22 16.09 A Few Clouds FEW047 31.6 19.9 50% 34 75.46 1005.6
03 14:55 SE 20 16.09 Fair CLR 32.7 19.5 46% 35 75.49 1005.9
03 13:55 SE 19 16.09 A Few Clouds FEW044 30.5 20.4 55% 33 75.54 1006.7
03 12:55 SE 17 16.09 Fair CLR 29.7 20.2 30.2 19.1 57% 32 75.62 1007.8
03 11:55 E 19 16.09 Fair CLR 29 20.4 60% 31 75.64 1008.2
03 10:55 SE 15 16.09 Fair CLR 26.9 19.5 64% 28 75.69 1008.9
03 09:55 E 13 16.09 Mostly Cloudy SCT040 BKN049 24.6 18.3 68% 26 75.69 1008.9
03 08:55 E 15 16.09 Fair CLR 22.9 16.4 67% 75.74 1009.6
Date Time (cdt) Wind (kph) Vis. (km) Weather Sky Cond. Air Dwpt Max. Min. Relative Humidity Wind Chill (°C) Heat Index (°C) altimeter (cm) sea level (mb) 1 hr 3 hr 6 hr
6 hour
Temperature (ºC) Pressure Precipitation (cm)